createdAt,value
2022-10-06T00:01:30.479Z,60.08
2022-10-06T00:04:18.500Z,60.49
2022-10-06T00:07:06.472Z,60.62
2022-10-06T00:09:54.494Z,59.84
2022-10-06T00:12:50.222Z,60.12
2022-10-06T00:15:38.277Z,60.65
2022-10-06T00:18:28.169Z,60.04
2022-10-06T00:21:16.766Z,59.77
2022-10-06T00:24:07.135Z,59.96
2022-10-06T00:26:54.966Z,59.02
2022-10-06T00:29:44.863Z,60.62
2022-10-06T00:32:33.195Z,64.80
2022-10-06T00:35:22.067Z,64.86
2022-10-06T00:38:16.621Z,64.39
2022-10-06T00:41:04.735Z,62.66
2022-10-06T00:43:57.099Z,62.23
2022-10-06T00:46:50.253Z,62.48
2022-10-06T00:49:39.911Z,61.65
2022-10-06T00:52:31.575Z,61.51
2022-10-06T00:55:20.460Z,61.14
2022-10-06T00:58:10.570Z,61.43
2022-10-06T01:00:59.855Z,61.50
2022-10-06T01:03:55.725Z,60.50
2022-10-06T01:06:57.917Z,61.00
2022-10-06T01:09:46.574Z,61.45
2022-10-06T01:12:35.102Z,60.91
2022-10-06T01:15:23.682Z,60.21
2022-10-06T01:18:17.864Z,60.75
2022-10-06T01:21:20.644Z,60.88
2022-10-06T01:24:08.407Z,60.22
2022-10-06T01:27:01.279Z,60.63
2022-10-06T01:29:55.757Z,60.92
2022-10-06T01:32:44.272Z,60.61
2022-10-06T01:35:32.189Z,60.55
2022-10-06T01:38:22.187Z,60.39
2022-10-06T02:17:48.778Z,61.48
2022-10-06T02:20:36.650Z,61.18
2022-10-06T02:23:24.720Z,61.24
2022-10-06T02:26:17.528Z,61.12
2022-10-06T02:29:06.291Z,61.49
2022-10-06T05:16:45.887Z,60.36
2022-10-06T05:19:34.128Z,60.27
2022-10-06T05:22:23.426Z,60.17
2022-10-06T05:25:11.916Z,60.11
2022-10-06T05:28:00.221Z,60.08
2022-10-06T06:13:23.736Z,59.96
2022-10-06T06:16:19.307Z,59.75
2022-10-06T06:33:13.958Z,61.35
2022-10-06T07:05:06.829Z,60.29
2022-10-06T07:25:46.290Z,61.34
2022-10-06T07:37:04.062Z,59.18
2022-10-06T07:42:52.153Z,61.52
2022-10-06T09:38:08.631Z,36.76
2022-10-06T10:24:48.891Z,31.49
2022-10-06T10:27:53.691Z,31.14
2022-10-06T10:30:51.260Z,31.04
2022-10-06T10:34:24.898Z,30.46
2022-10-06T10:37:24.411Z,28.95
2022-10-06T10:40:31.292Z,26.75
2022-10-06T10:43:35.371Z,26.45
2022-10-06T10:46:36.567Z,26.30
2022-10-06T10:49:35.236Z,26.64
2022-10-06T10:52:30.696Z,27.81
2022-10-06T10:55:34.572Z,27.66
2022-10-06T10:58:39.020Z,26.62
2022-10-06T11:01:46.367Z,25.52
2022-10-06T11:04:36.187Z,24.75
2022-10-06T11:07:48.746Z,25.91
2022-10-06T11:10:52.478Z,27.61
2022-10-06T11:13:49.944Z,29.52
2022-10-06T11:17:07.182Z,31.80
2022-10-06T11:20:09.257Z,32.31
2022-10-06T11:23:03.249Z,31.92
2022-10-06T11:26:34.952Z,31.20
2022-10-06T11:29:37.676Z,31.59
2022-10-06T11:32:46.580Z,32.91
2022-10-06T11:35:42.000Z,35.23
2022-10-06T11:39:08.147Z,37.25
2022-10-06T11:42:12.875Z,37.56
2022-10-06T11:45:14.059Z,36.99
2022-10-06T11:48:10.966Z,35.83
2022-10-06T11:51:24.917Z,35.10
2022-10-06T11:54:44.812Z,34.98
2022-10-06T11:57:34.391Z,36.06
2022-10-06T12:00:22.017Z,37.37
2022-10-06T12:03:28.526Z,38.53
2022-10-06T12:06:53.714Z,39.91
2022-10-06T12:09:50.998Z,41.05
2022-10-06T12:12:43.258Z,41.80
2022-10-06T12:19:07.642Z,43.11
2022-10-06T12:22:31.211Z,43.47
2022-10-06T12:25:59.732Z,43.73
2022-10-06T12:29:18.536Z,43.92
2022-10-06T12:32:32.045Z,45.10
2022-10-06T12:35:35.147Z,45.04
2022-10-06T12:38:31.572Z,45.12
2022-10-06T12:41:56.576Z,45.33
2022-10-06T12:44:51.889Z,45.49
2022-10-06T12:47:44.336Z,45.71
2022-10-06T12:50:32.328Z,45.43
2022-10-06T12:53:32.623Z,45.31
2022-10-06T12:56:41.950Z,45.48
2022-10-06T12:59:38.481Z,46.01
2022-10-06T13:02:28.844Z,46.63
2022-10-06T13:05:17.024Z,47.81
2022-10-06T13:08:20.352Z,48.11
2022-10-06T13:11:28.441Z,48.80
2022-10-06T13:14:16.606Z,49.56
2022-10-06T13:17:04.353Z,50.05
2022-10-06T13:19:53.887Z,50.31
2022-10-06T13:22:41.623Z,50.36
2022-10-06T13:25:55.491Z,50.69
2022-10-06T13:28:43.228Z,50.70
2022-10-06T13:31:36.897Z,50.71
2022-10-06T13:34:34.855Z,50.78
2022-10-06T13:37:23.032Z,50.78
2022-10-06T13:40:43.516Z,50.59
2022-10-06T13:43:39.707Z,50.84
2022-10-06T13:47:26.850Z,51.13
2022-10-06T13:50:19.927Z,51.23
2022-10-06T13:53:31.286Z,51.41
2022-10-06T13:56:37.814Z,51.57
2022-10-06T13:59:37.920Z,51.68
2022-10-06T14:02:31.911Z,51.69
2022-10-06T14:05:36.973Z,51.83
2022-10-06T14:08:27.172Z,51.99
2022-10-06T14:11:20.553Z,52.24
2022-10-06T14:14:14.570Z,52.38
2022-10-06T14:17:05.890Z,52.79
2022-10-06T14:19:53.564Z,52.94
2022-10-06T14:22:40.214Z,53.24
2022-10-06T14:25:26.965Z,53.19
2022-10-06T14:28:13.900Z,53.47
2022-10-06T14:31:00.645Z,53.59
2022-10-06T14:33:51.703Z,53.85
2022-10-06T14:36:38.303Z,54.06
2022-10-06T14:39:24.961Z,54.11
2022-10-06T14:42:15.249Z,54.06
2022-10-06T14:45:08.446Z,54.39
2022-10-06T14:47:55.187Z,54.49
2022-10-06T14:50:46.175Z,54.62
2022-10-06T14:53:33.239Z,54.63
2022-10-06T14:56:22.680Z,54.78
2022-10-06T14:59:16.344Z,54.64
2022-10-06T15:02:03.023Z,54.86
2022-10-06T15:04:49.793Z,54.83
2022-10-06T15:07:55.129Z,54.82
2022-10-06T15:10:51.118Z,54.79
2022-10-06T15:13:37.679Z,54.98
2022-10-06T15:16:26.716Z,55.16
2022-10-06T15:19:13.515Z,55.47
2022-10-06T15:22:00.897Z,55.45
2022-10-06T15:24:50.072Z,55.74
2022-10-06T15:27:55.396Z,56.08
2022-10-06T15:30:44.432Z,56.30
2022-10-06T15:33:31.591Z,56.62
2022-10-06T15:36:21.362Z,56.93
2022-10-06T15:39:14.521Z,56.94
2022-10-06T15:42:02.474Z,57.33
2022-10-06T15:44:49.558Z,57.59
2022-10-06T15:47:36.351Z,57.83
2022-10-06T15:50:22.803Z,57.99
2022-10-06T15:53:09.410Z,58.26
2022-10-06T15:55:58.445Z,58.45
2022-10-06T15:58:45.617Z,58.97
2022-10-06T16:01:36.533Z,59.29
2022-10-06T16:04:38.116Z,59.48
2022-10-06T16:07:24.617Z,59.70
2022-10-06T16:10:12.991Z,60.37
2022-10-06T16:12:59.625Z,60.61
2022-10-06T16:15:53.276Z,60.62
2022-10-06T16:18:39.963Z,60.70
2022-10-06T16:21:26.707Z,60.98
2022-10-06T16:24:14.063Z,61.14
2022-10-06T16:27:00.588Z,61.42
2022-10-06T16:29:47.344Z,61.80
2022-10-06T16:32:33.646Z,63.21
2022-10-06T16:35:20.123Z,59.36
2022-10-06T16:38:06.804Z,57.54
2022-10-06T16:41:01.133Z,58.02
2022-10-06T16:43:50.600Z,59.16
2022-10-06T16:46:37.380Z,60.13
2022-10-06T16:49:24.343Z,60.87
2022-10-06T16:52:10.671Z,62.00
2022-10-06T16:55:06.126Z,61.92
2022-10-06T16:57:54.153Z,57.86
2022-10-06T17:00:42.993Z,56.19
2022-10-06T17:03:29.450Z,57.76
2022-10-06T17:06:19.140Z,58.93
2022-10-06T17:09:10.821Z,59.95
2022-10-06T17:12:00.988Z,60.90
2022-10-06T17:14:47.796Z,61.69
2022-10-06T17:17:34.109Z,61.57
2022-10-06T17:20:20.877Z,59.41
2022-10-06T17:23:09.426Z,57.31
2022-10-06T17:26:14.852Z,58.89
2022-10-06T17:29:07.579Z,60.11
2022-10-06T17:32:00.221Z,61.04
2022-10-06T17:34:49.684Z,61.49
2022-10-06T17:37:53.832Z,62.22
2022-10-06T17:40:44.371Z,60.77
2022-10-06T17:43:33.851Z,57.79
2022-10-06T17:46:22.401Z,58.47
2022-10-06T17:49:12.267Z,59.69
2022-10-06T17:51:58.966Z,61.05
2022-10-06T17:54:45.841Z,62.70
2022-10-06T17:57:34.446Z,61.49
2022-10-06T18:00:21.359Z,61.75
2022-10-06T18:03:08.570Z,57.25
2022-10-06T18:05:58.366Z,57.63
2022-10-06T18:08:47.196Z,59.38
2022-10-06T18:11:37.893Z,60.53
2022-10-06T18:14:32.750Z,62.37
2022-10-06T18:17:19.960Z,61.47
2022-10-06T18:20:06.812Z,58.02
2022-10-06T18:22:53.524Z,57.87
2022-10-06T18:25:40.429Z,59.70
2022-10-06T18:28:28.333Z,61.36
2022-10-06T18:31:17.787Z,63.19
2022-10-06T18:37:11.430Z,61.86
2022-10-06T18:39:57.978Z,59.30
2022-10-06T18:42:44.886Z,56.44
2022-10-06T18:45:52.035Z,57.57
2022-10-06T18:48:55.572Z,59.65
2022-10-06T18:51:55.963Z,63.37
2022-10-06T18:54:45.865Z,61.43
2022-10-06T18:57:32.304Z,57.34
2022-10-06T19:00:18.787Z,59.24
2022-10-06T19:03:05.596Z,61.62
2022-10-06T19:05:52.733Z,63.65
2022-10-06T19:08:39.797Z,61.99
2022-10-06T19:11:47.981Z,59.13
2022-10-06T19:14:42.380Z,59.35
2022-10-06T19:17:30.195Z,60.82
2022-10-06T19:20:17.745Z,63.32
2022-10-06T19:23:04.660Z,61.86
2022-10-06T19:26:00.142Z,61.40
2022-10-06T19:28:46.631Z,58.17
2022-10-06T19:31:37.397Z,58.93
2022-10-06T19:34:26.020Z,61.45
2022-10-06T19:37:13.721Z,63.90
2022-10-06T19:39:59.909Z,65.14
2022-10-06T19:42:46.705Z,62.54
2022-10-06T19:45:33.524Z,58.47
2022-10-06T19:48:23.195Z,59.16
2022-10-06T19:51:16.719Z,62.40
2022-10-06T19:54:04.392Z,63.29
2022-10-06T19:56:51.216Z,62.35
2022-10-06T19:59:50.989Z,62.04
2022-10-06T20:02:47.694Z,60.87
2022-10-06T20:05:37.995Z,57.47
2022-10-06T20:08:24.719Z,58.18
2022-10-06T20:11:15.186Z,61.04
2022-10-06T20:14:09.841Z,63.05
2022-10-06T20:16:57.234Z,62.72
2022-10-06T20:19:43.542Z,60.14
2022-10-06T20:22:31.232Z,59.25
2022-10-06T20:25:17.892Z,60.49
2022-10-06T20:28:08.177Z,63.52
2022-10-06T20:30:55.826Z,62.34
2022-10-06T20:33:43.157Z,59.94
2022-10-06T20:36:31.919Z,58.99
2022-10-06T20:39:39.859Z,61.04
2022-10-06T20:42:27.439Z,63.58
2022-10-06T20:45:14.256Z,63.96
2022-10-06T20:48:01.572Z,61.83
2022-10-06T20:50:47.961Z,58.55
2022-10-06T20:53:34.887Z,59.44
2022-10-06T20:56:21.408Z,62.27
2022-10-06T20:59:11.307Z,64.91
2022-10-06T21:02:01.118Z,63.33
2022-10-06T21:04:48.260Z,60.78
2022-10-06T21:07:34.821Z,58.54
2022-10-06T21:10:22.481Z,59.42
2022-10-06T21:13:09.326Z,61.52
2022-10-06T21:15:57.379Z,64.35
2022-10-06T21:18:45.342Z,62.72
2022-10-06T21:21:31.666Z,60.56
2022-10-06T21:24:19.788Z,59.44
2022-10-06T21:27:06.156Z,58.88
2022-10-06T21:29:52.919Z,61.14
2022-10-06T21:32:39.504Z,63.42
2022-10-06T21:35:26.601Z,63.58
2022-10-06T21:38:13.225Z,61.12
2022-10-06T21:41:22.866Z,59.17
2022-10-06T21:44:15.790Z,58.89
2022-10-06T21:47:02.214Z,62.21
2022-10-06T21:49:48.788Z,62.90
2022-10-06T21:52:35.251Z,61.71
2022-10-06T21:55:21.941Z,59.94
2022-10-06T21:58:08.655Z,58.90
2022-10-06T22:00:58.130Z,61.56
2022-10-06T22:03:45.556Z,63.58
2022-10-06T22:06:34.940Z,62.08
2022-10-06T22:09:21.495Z,61.43
2022-10-06T22:12:08.068Z,58.48
2022-10-06T22:14:58.293Z,59.22
2022-10-06T22:17:46.486Z,62.68
2022-10-06T22:20:34.238Z,62.86
2022-10-06T22:23:21.006Z,61.39
2022-10-06T22:26:09.215Z,59.78
2022-10-06T22:28:57.434Z,58.37
2022-10-06T22:31:46.504Z,60.46
2022-10-06T22:34:33.054Z,63.48
2022-10-06T22:37:23.363Z,62.81
2022-10-06T22:40:10.748Z,60.99
2022-10-06T22:42:57.180Z,59.76
2022-10-06T22:45:43.937Z,59.17
2022-10-06T22:48:30.942Z,61.22
2022-10-06T22:51:17.911Z,63.77
2022-10-06T22:54:04.265Z,62.43
2022-10-06T22:56:50.660Z,60.67
2022-10-06T22:59:39.730Z,59.58
2022-10-06T23:02:26.264Z,59.00
2022-10-06T23:05:13.042Z,61.61
2022-10-06T23:07:59.845Z,63.81
2022-10-06T23:10:46.242Z,62.90
2022-10-06T23:13:33.029Z,60.66
2022-10-06T23:16:20.572Z,59.29
2022-10-06T23:19:07.192Z,58.95
2022-10-06T23:21:53.698Z,61.34
2022-10-06T23:24:40.348Z,63.64
2022-10-06T23:27:27.173Z,62.11
2022-10-06T23:30:13.776Z,60.24
2022-10-06T23:33:00.277Z,59.27
2022-10-06T23:35:58.606Z,59.61
2022-10-06T23:38:46.045Z,62.89
2022-10-06T23:41:34.083Z,63.55
2022-10-06T23:44:20.704Z,62.72
2022-10-06T23:47:07.257Z,60.18
2022-10-06T23:49:54.077Z,59.08
2022-10-06T23:52:41.037Z,59.86
2022-10-06T23:55:27.447Z,62.97
2022-10-06T23:58:14.333Z,64.12
